Flight Track Log - Related Links

Times and Time Zones

All times are in EDT time to prevent confusion due to time zone crossing. See the ASQ5871 flight status page for this flight to view local times or setup timezone preferences in your user account.

Time Position Orientation Groundspeed Altitude Reporting Facility
EDT Latitude Longitude Course Direction KTS MPH feet Rate Location/Type
Mon 04:03:56 PM 41.9333 -87.8500 88° East 217 250 3,300  Level Chicago TRACON
Mon 04:08:29 PM 41.9456 -87.3567 90° East 301 346 10,900 1,640 Climbing Chicago Center
Mon 04:09:29 PM 41.9453 -87.2253 89° East 322 371 12,400 1,600 Climbing Chicago Center
Mon 04:10:29 PM 41.9467 -87.0914 88° East 346 398 14,100 1,750 Climbing Chicago Center
Mon 04:11:29 PM 41.9503 -86.9544 98° East 356 410 15,900 1,750 Climbing Chicago Center
Mon 04:12:29 PM 41.9369 -86.8208 106° East 356 410 17,600 1,700 Climbing Chicago Center
Mon 04:13:29 PM 41.9089 -86.6908 104° East 361 415 19,300 1,700 Climbing Chicago Center
Mon 04:14:29 PM 41.8850 -86.5606 101° East 371 427 21,000 1,750 Climbing Chicago Center
Mon 04:15:29 PM 41.8650 -86.4278 93° East 366 421 22,800 1,400 Climbing Chicago Center
Mon 04:16:29 PM 41.8592 -86.2858 93° East 372 428 23,800 1,050 Climbing Chicago Center
Mon 04:17:29 PM 41.8531 -86.1383 92° East 377 434 24,900 1,140 Climbing Chicago Center
Mon 04:18:30 PM 41.8489 -85.9908 92° East 389 448 26,100 1,050 Climbing Chicago Center
Mon 04:19:29 PM 41.8450 -85.8600 93° East 396 456 27,000 454 Climbing Chicago Center
Mon 04:20:29 PM 41.8378 -85.6986 93° East 413 475 27,000  Level Chicago Center
Mon 04:21:30 PM 41.8297 -85.5094 93° East 435 501 27,000  Level Chicago Center
Mon 04:22:30 PM 41.8233 -85.3286 94° East 462 532 27,000  Level Chicago Center
Mon 04:23:30 PM 41.8147 -85.1481 94° East 476 548 27,000  Level Chicago Center
Mon 04:24:30 PM 41.8067 -84.9842 94° East 492 566 27,000  Level Chicago Center
Mon 04:25:40 PM 41.7939 -84.7697 94° East 484 557 27,000  Level Cleveland Center
Mon 04:26:40 PM 41.7844 -84.5683 93° East 490 564 27,000  Level Cleveland Center
Mon 04:27:40 PM 41.7761 -84.3814 89° East 501 577 27,000  Level Cleveland Center
Mon 04:28:40 PM 41.7772 -84.2172 91° East 501 577 27,000 -50 Level Cleveland Center
Mon 04:29:40 PM 41.7747 -84.0331 90° East 496 571 26,900  Descending Cleveland Center
Mon 04:30:40 PM 41.7739 -83.8464 91° East 496 571 27,000 50 Climbing Cleveland Center
Mon 04:31:40 PM 41.7706 -83.6597 93° East 501 577 27,000  Level Cleveland Center
Mon 04:32:40 PM 41.7628 -83.4811 98° East 501 577 27,000  Level Cleveland Center
Mon 04:33:40 PM 41.7444 -83.2994 98° East 501 577 27,000  Level Cleveland Center
Mon 04:34:40 PM 41.7256 -83.1206 96° East 493 567 27,000  Level Cleveland Center
Mon 04:35:40 PM 41.7089 -82.9225 99° East 483 556 27,000  Level Cleveland Center
Mon 04:36:40 PM 41.6872 -82.7464 97° East 483 556 27,000  Level Cleveland Center
Mon 04:37:40 PM 41.6697 -82.5678 98° East 483 556 27,000  Level Cleveland Center
Mon 04:38:40 PM 41.6517 -82.3922 97° East 483 556 27,000  Level Cleveland Center
Mon 04:39:40 PM 41.6356 -82.2167 98° East 483 556 27,000  Level Cleveland Center
Mon 04:40:40 PM 41.6172 -82.0442 98° East 483 556 27,000  Level Cleveland Center
Mon 04:41:40 PM 41.6003 -81.8828 98° East 483 556 27,000  Level Cleveland Center
Mon 04:42:40 PM 41.5814 -81.7103 99° East 483 556 27,000  Level Cleveland Center
Mon 04:43:40 PM 41.5600 -81.5378 99° East 478 550 27,000  Level Cleveland Center
Mon 04:44:40 PM 41.5403 -81.3628 99° East 471 542 27,000  Level Cleveland Center
Mon 04:45:40 PM 41.5186 -81.1767 98° East 466 536 27,000  Level Cleveland Center
Mon 04:46:40 PM 41.5006 -81.0072 95° East 466 536 27,000  Level Cleveland Center
Mon 04:47:40 PM 41.4886 -80.8353 97° East 464 534 27,000  Level Cleveland Center
Mon 04:48:40 PM 41.4722 -80.6664 98° East 464 534 27,000  Level Cleveland Center
Mon 04:49:40 PM 41.4556 -80.5000 96° East 464 534 27,000  Level Cleveland Center
Mon 04:50:40 PM 41.4428 -80.3450 97° East 464 534 27,000  Level Cleveland Center
Mon 04:51:40 PM 41.4278 -80.1789 98° East 464 534 27,000  Level Cleveland Center
Mon 04:52:40 PM 41.4103 -80.0044 97° East 469 540 27,000  Level Cleveland Center
Mon 04:53:40 PM 41.3947 -79.8303 98° East 469 540 27,000  Level Cleveland Center
Mon 04:54:40 PM 41.3767 -79.6617 97° East 464 534 27,000  Level Cleveland Center
Mon 04:55:40 PM 41.3606 -79.4847 98° East 469 540 27,000  Level Cleveland Center
Mon 04:56:40 PM 41.3422 -79.3108 98° East 469 540 27,000 -50 Level Cleveland Center
Mon 04:57:40 PM 41.3233 -79.1400 97° East 469 540 26,900 -400 Descending Cleveland Center
Mon 04:58:40 PM 41.3067 -78.9717 98° East 464 534 26,200 -700 Descending Cleveland Center
Mon 04:59:40 PM 41.2894 -78.8008 98° East 464 534 25,500 -600 Descending Cleveland Center
Mon 05:00:40 PM 41.2719 -78.6272 99° East 464 534 25,000 -173 Descending Cleveland Center
Mon 05:02:33 PM 41.2339 -78.3117 99° East 476 548 25,000  Level New York Center
Mon 05:03:34 PM 41.2133 -78.1439 98° East 476 548 25,000  Level New York Center
Mon 05:04:34 PM 41.1944 -77.9764 99° East 465 535 25,000  Level New York Center
Mon 05:05:32 PM 41.1733 -77.8058 100° East 465 535 25,000 -655 Level New York Center
Mon 05:06:33 PM 41.1517 -77.6436 100° East 460 529 23,700 -1,412 Descending New York Center
Mon 05:07:31 PM 41.1300 -77.4761 100° East 460 529 22,200 -1,563 Descending New York Center
Mon 05:08:32 PM 41.1047 -77.2947 103° East 455 524 20,600 -1,636 Descending New York Center
Mon 05:09:32 PM 41.0778 -77.1350 104° East 448 516 18,900 -1,636 Descending New York Center
Mon 05:10:33 PM 41.0486 -76.9811 105° East 437 503 17,300 -1,664 Descending New York Center
Mon 05:11:31 PM 41.0219 -76.8492 105° East 426 490 15,600 -1,714 Descending New York Center
Mon 05:12:32 PM 40.9939 -76.7064 103° East 411 473 13,900 -1,736 Descending New York Center
Mon 05:13:32 PM 40.9661 -76.5531 105° East 390 449 12,100 -1,438 Descending New York Center
Mon 05:14:33 PM 40.9392 -76.4161 104° East 382 440 11,000 -545 Descending New York Center
Mon 05:15:33 PM 40.9158 -76.2933 104° East 382 440 11,000 -198 Level New York Center
Mon 05:16:34 PM 40.8925 -76.1706 106° East 368 423 10,600 -1,008 Descending New York Center
Mon 05:17:32 PM 40.8683 -76.0561 104° East 311 358 9,000 -821 Descending New York Center
Mon 05:18:31 PM 40.8497 -75.9586 104° East 304 350 9,000 -600 Level New York Center
Mon 05:19:32 PM 40.8294 -75.8528 102° East 304 350 7,800 -1,574 Descending New York Center
Mon 05:20:33 PM 40.8114 -75.7392 99° East 290 334 5,800 -1,866 Descending New York Center
Mon 05:21:31 PM 40.7989 -75.6394 99° East 281 323 4,100 -1,322 Descending New York Center
Mon 05:22:31 PM 40.7881 -75.5456 113° Southeast 270 311 3,200 -744 Descending New York Center
Mon 05:23:32 PM 40.7658 -75.4781 125° Southeast 240 276 2,600 -397 Descending New York Center
Mon 05:24:32 PM 40.7308 -75.4128 156° South 218 251 2,400 -595 Descending New York Center
Mon 05:25:33 PM 40.6881 -75.3881 135° Southeast 187 215 1,400 4,230 Descending New York Center
Mon 05:26:34 PM 40.6464 -75.3333 146° Southeast 187 215 11,000 4,881 Climbing New York Center
Mon 05:27:31 PM 40.6061 -75.2978 144° Southeast 187 215 11,000  Level New York Center
Mon 05:28:32 PM 40.5658 -75.2594 146° Southeast 187 215 11,000  Level New York Center
Mon 05:29:32 PM 40.5256 -75.2242 146° Southeast 187 215 11,000  Level New York Center

Login

Don't have an account? Register now (free) for customized features, flight alerts, and more!